Terminal Aerodrome Forecast
Issued by NWS

Home | Current Version | Previous Version | Text Only | Print | Product List | Glossary On
Versions: 1 2 3 4 5 6 7 8 9 10 11 12 13
312
FTUS45 KRIW 222321
TAFRKS
TAF
KRKS 222321Z 2300/2324 27020G30KT P6SM SCT100 BKN200
     FM230100 26012G20KT P6SM BKN200
     FM230800 25009KT P6SM FEW010 BKN200
     FM231900 26012KT P6SM BKN200=

USA.gov is the U.S. government's official web portal to all federal, state and local government web resources and services.